createdAt,value
2017-10-12T00:00:21.484Z,1008.46
2017-10-12T00:01:02.048Z,1008.47
2017-10-12T00:01:42.610Z,1008.53
2017-10-12T00:02:23.171Z,1008.5
2017-10-12T00:03:03.745Z,1008.47
2017-10-12T00:03:44.312Z,1008.46
2017-10-12T00:04:24.883Z,1008.49
2017-10-12T00:05:05.441Z,1008.49
2017-10-12T00:05:46.003Z,1008.46
2017-10-12T00:06:26.567Z,1008.5
2017-10-12T00:07:07.124Z,1008.46
2017-10-12T00:07:47.701Z,1008.49
2017-10-12T00:08:28.262Z,1008.48
2017-10-12T00:09:08.835Z,1008.47
2017-10-12T00:09:49.394Z,1008.45
2017-10-12T00:10:30.017Z,1008.44
2017-10-12T00:11:10.643Z,1008.44
2017-10-12T00:11:51.213Z,1008.44
2017-10-12T00:12:31.771Z,1008.4
2017-10-12T00:13:12.365Z,1008.39
2017-10-12T00:13:52.922Z,1008.36
2017-10-12T00:14:33.494Z,1008.36
2017-10-12T00:15:14.052Z,1008.36
2017-10-12T00:15:54.615Z,1008.33
2017-10-12T00:16:35.191Z,1008.36
2017-10-12T00:17:15.747Z,1008.38
2017-10-12T00:17:56.361Z,1008.3
2017-10-12T00:18:36.946Z,1008.3
2017-10-12T00:19:17.508Z,1008.3
2017-10-12T00:19:58.100Z,1008.32
2017-10-12T00:20:38.678Z,1008.28
2017-10-12T00:21:19.273Z,1008.26
2017-10-12T00:21:59.845Z,1008.32
2017-10-12T00:22:40.405Z,1008.27
2017-10-12T00:23:20.975Z,1008.28
2017-10-12T00:24:01.533Z,1008.3
2017-10-12T00:24:42.110Z,1008.28
2017-10-12T00:25:22.678Z,1008.29
2017-10-12T00:26:03.236Z,1008.28
2017-10-12T00:26:43.798Z,1008.3
2017-10-12T00:27:24.363Z,1008.28
2017-10-12T00:28:04.948Z,1008.34
2017-10-12T00:28:45.526Z,1008.35
2017-10-12T00:29:26.096Z,1008.33
2017-10-12T00:30:06.664Z,1008.28
2017-10-12T00:30:47.228Z,1008.28
2017-10-12T00:31:27.797Z,1008.32
2017-10-12T00:32:08.360Z,1008.3
2017-10-12T00:32:48.940Z,1008.31
2017-10-12T00:33:29.510Z,1008.31
2017-10-12T00:34:10.060Z,1008.32
2017-10-12T00:34:50.634Z,1008.26
2017-10-12T00:35:31.200Z,1008.29
2017-10-12T00:36:11.792Z,1008.29
2017-10-12T00:36:52.356Z,1008.3
2017-10-12T00:37:32.928Z,1008.26
2017-10-12T00:38:13.481Z,1008.27
2017-10-12T00:38:54.106Z,1008.24
2017-10-12T00:39:34.681Z,1008.24
2017-10-12T00:40:15.256Z,1008.21
2017-10-12T00:40:55.825Z,1008.25
2017-10-12T00:41:36.409Z,1008.21
2017-10-12T00:42:16.971Z,1008.2
2017-10-12T00:42:57.544Z,1008.2
2017-10-12T00:43:38.092Z,1008.16
2017-10-12T00:44:18.667Z,1008.19
2017-10-12T00:44:59.256Z,1008.14
2017-10-12T00:45:39.870Z,1008.12
2017-10-12T00:46:20.446Z,1008.13
2017-10-12T00:47:01.003Z,1008.14
2017-10-12T00:47:41.565Z,1008.16
2017-10-12T00:48:22.154Z,1008.07
2017-10-12T00:49:02.721Z,1008.07
2017-10-12T00:49:43.283Z,1008.04
2017-10-12T00:50:23.930Z,1008.08
2017-10-12T00:51:04.515Z,1008.02
2017-10-12T00:51:45.197Z,1008.04
2017-10-12T00:52:25.836Z,1008.03
2017-10-12T00:53:06.421Z,1007.99
2017-10-12T00:53:47.415Z,1008.05
2017-10-12T00:54:27.923Z,1008.03
2017-10-12T00:55:08.549Z,1008.04
2017-10-12T00:55:49.135Z,1008.05
2017-10-12T00:56:30.190Z,1008.03
2017-10-12T00:57:10.779Z,1008.04
2017-10-12T00:57:51.341Z,1008.01
2017-10-12T00:58:31.924Z,1007.99
2017-10-12T00:59:12.490Z,1007.97
2017-10-12T00:59:53.078Z,1007.98
2017-10-12T01:00:33.637Z,1007.97
2017-10-12T01:01:14.210Z,1008.01
2017-10-12T01:01:54.800Z,1008.01
2017-10-12T01:02:35.361Z,1007.99
2017-10-12T01:03:15.926Z,1007.97
2017-10-12T01:03:56.490Z,1007.97
2017-10-12T01:04:37.047Z,1007.94
2017-10-12T01:05:17.629Z,1007.91
2017-10-12T01:05:58.200Z,1007.91
2017-10-12T01:06:38.770Z,1007.97
2017-10-12T01:07:19.331Z,1007.95
2017-10-12T01:07:59.898Z,1008
2017-10-12T01:08:40.474Z,1007.9
2017-10-12T01:09:21.039Z,1007.87
2017-10-12T01:10:01.609Z,1007.96
2017-10-12T01:10:42.243Z,1007.91
2017-10-12T01:11:22.806Z,1007.89
2017-10-12T01:12:03.366Z,1007.91
2017-10-12T01:12:43.942Z,1007.89
2017-10-12T01:13:24.568Z,1007.9
2017-10-12T01:14:05.142Z,1007.82
2017-10-12T01:14:45.708Z,1007.83
2017-10-12T01:15:26.298Z,1007.74
2017-10-12T01:16:06.921Z,1007.69
2017-10-12T01:16:47.500Z,1007.65
2017-10-12T01:17:28.094Z,1007.69
2017-10-12T01:18:08.638Z,1007.69
2017-10-12T01:18:49.223Z,1007.73
2017-10-12T01:19:29.806Z,1007.72
2017-10-12T01:20:10.364Z,1007.73
2017-10-12T01:20:50.932Z,1007.68
2017-10-12T01:21:31.508Z,1007.71
2017-10-12T01:22:12.116Z,1007.71
2017-10-12T01:22:52.697Z,1007.67
2017-10-12T01:23:33.262Z,1007.71
2017-10-12T01:24:13.844Z,1007.67
2017-10-12T01:24:54.413Z,1007.69
2017-10-12T01:25:34.978Z,1007.67
2017-10-12T01:26:15.567Z,1007.63
2017-10-12T01:26:56.134Z,1007.55
2017-10-12T01:27:36.692Z,1007.56
2017-10-12T01:28:17.268Z,1007.48
2017-10-12T01:28:57.854Z,1007.48
2017-10-12T01:29:38.404Z,1007.5
2017-10-12T01:30:18.966Z,1007.54
2017-10-12T01:30:59.539Z,1007.62
2017-10-12T01:31:40.101Z,1007.58
2017-10-12T01:32:20.663Z,1007.59
2017-10-12T01:33:01.231Z,1007.6
2017-10-12T01:33:41.795Z,1007.63
2017-10-12T01:34:22.349Z,1007.59
2017-10-12T01:35:02.914Z,1007.59
2017-10-12T01:35:43.475Z,1007.59
2017-10-12T01:36:24.035Z,1007.59
2017-10-12T01:37:04.603Z,1007.55
2017-10-12T01:37:45.174Z,1007.53
2017-10-12T01:38:25.754Z,1007.53
2017-10-12T01:39:06.314Z,1007.59
2017-10-12T01:39:46.876Z,1007.56
2017-10-12T01:40:27.449Z,1007.56
2017-10-12T01:41:08.012Z,1007.53
2017-10-12T01:41:48.573Z,1007.53
2017-10-12T01:42:29.137Z,1007.54
2017-10-12T01:43:09.750Z,1007.5
2017-10-12T01:43:50.316Z,1007.53
2017-10-12T01:44:30.882Z,1007.51
2017-10-12T01:45:11.497Z,1007.51
2017-10-12T01:45:52.092Z,1007.58
2017-10-12T01:46:32.698Z,1007.52
2017-10-12T01:47:13.260Z,1007.52
2017-10-12T01:47:53.869Z,1007.54
2017-10-12T01:48:34.428Z,1007.45
2017-10-12T01:49:14.996Z,1007.44
2017-10-12T01:49:55.577Z,1007.41
2017-10-12T01:50:36.151Z,1007.42
2017-10-12T01:51:16.729Z,1007.38
2017-10-12T01:51:57.324Z,1007.39
2017-10-12T01:52:37.886Z,1007.32
2017-10-12T01:53:18.460Z,1007.28
2017-10-12T01:53:59.076Z,1007.29
2017-10-12T01:54:39.668Z,1007.3
2017-10-12T01:55:20.245Z,1007.27
2017-10-12T01:56:00.824Z,1007.23
2017-10-12T01:56:41.381Z,1007.21
2017-10-12T01:57:21.952Z,1007.21
2017-10-12T01:58:02.517Z,1007.2
2017-10-12T01:58:43.094Z,1007.25
2017-10-12T01:59:23.662Z,1007.19
2017-10-12T02:00:04.227Z,1007.18
2017-10-12T02:00:44.797Z,1007.16
2017-10-12T02:01:25.400Z,1007.15
2017-10-12T02:02:06.021Z,1007.2
2017-10-12T02:02:46.599Z,1007.17
2017-10-12T02:03:27.171Z,1007.13
2017-10-12T02:04:07.745Z,1007.13
2017-10-12T02:04:48.320Z,1007.17
2017-10-12T02:05:28.935Z,1007.17
2017-10-12T02:06:09.464Z,1007.15
2017-10-12T02:06:50.075Z,1007.13
2017-10-12T02:07:30.632Z,1007.19
2017-10-12T02:08:11.269Z,1007.19
2017-10-12T02:08:51.840Z,1007.18
2017-10-12T02:09:32.425Z,1007.19
2017-10-12T02:10:13.039Z,1007.18
2017-10-12T02:10:53.648Z,1007.21
2017-10-12T02:11:34.217Z,1007.17
2017-10-12T02:12:14.805Z,1007.19
2017-10-12T02:12:55.388Z,1007.15
2017-10-12T02:13:35.956Z,1007.19
2017-10-12T02:14:16.547Z,1007.16
2017-10-12T02:14:57.121Z,1007.18
2017-10-12T02:15:37.690Z,1007.17
2017-10-12T02:16:18.312Z,1007.2
2017-10-12T02:16:58.887Z,1007.16
2017-10-12T02:17:39.476Z,1007.17
2017-10-12T02:18:20.034Z,1007.18
2017-10-12T02:19:00.616Z,1007.15
2017-10-12T02:19:41.237Z,1007.18
2017-10-12T02:20:21.840Z,1007.16
2017-10-12T02:21:02.407Z,1007.12
2017-10-12T02:21:42.983Z,1007.14
2017-10-12T02:22:23.552Z,1007.19
2017-10-12T02:23:04.145Z,1007.13
2017-10-12T02:23:44.726Z,1007.14
2017-10-12T02:24:25.300Z,1007.16
2017-10-12T02:25:05.872Z,1007.17
2017-10-12T02:25:46.462Z,1007.12
2017-10-12T02:26:27.060Z,1007.14
2017-10-12T02:27:07.617Z,1007.12
2017-10-12T02:27:48.189Z,1007.07
2017-10-12T02:28:28.760Z,1007.06
2017-10-12T02:29:09.324Z,1007.01
2017-10-12T02:29:49.907Z,1007.01
2017-10-12T02:30:30.471Z,1006.99
2017-10-12T02:31:11.057Z,1007.06
2017-10-12T02:31:51.647Z,1007.05
2017-10-12T02:32:32.233Z,1007.05
2017-10-12T02:33:12.809Z,1007
2017-10-12T02:33:53.374Z,1007
2017-10-12T02:34:33.960Z,1006.99
2017-10-12T02:35:14.538Z,1006.99
2017-10-12T02:35:55.129Z,1007.06
2017-10-12T02:36:35.692Z,1006.96
2017-10-12T02:37:16.246Z,1006.97
2017-10-12T02:37:56.814Z,1006.98
2017-10-12T02:38:37.386Z,1007
2017-10-12T02:39:17.963Z,1006.99
2017-10-12T02:39:58.536Z,1006.99
2017-10-12T02:40:39.098Z,1007.02
2017-10-12T02:41:19.703Z,1007.04
2017-10-12T02:42:00.261Z,1007.03
2017-10-12T02:42:40.853Z,1007
2017-10-12T02:43:21.404Z,1007.04
2017-10-12T02:44:01.967Z,1007.06
2017-10-12T02:44:42.542Z,1007.08
2017-10-12T02:45:23.101Z,1007.07
2017-10-12T02:46:03.675Z,1007.06
2017-10-12T02:46:44.247Z,1007.04
2017-10-12T02:47:24.807Z,1007.02
2017-10-12T02:48:05.368Z,1007.02
2017-10-12T02:48:45.950Z,1007.04
2017-10-12T02:49:26.538Z,1007
2017-10-12T02:50:07.101Z,1007
2017-10-12T02:50:47.671Z,1006.97
2017-10-12T02:51:28.236Z,1006.94
2017-10-12T02:52:08.788Z,1006.97
2017-10-12T02:52:49.354Z,1006.95
2017-10-12T02:53:29.929Z,1006.95
2017-10-12T02:54:10.495Z,1006.97
2017-10-12T02:54:51.070Z,1006.92
2017-10-12T02:55:31.639Z,1006.92
2017-10-12T02:56:12.203Z,1006.86
2017-10-12T02:56:52.781Z,1006.87
2017-10-12T02:57:33.340Z,1006.91
2017-10-12T02:58:13.901Z,1006.85
2017-10-12T02:58:54.474Z,1006.81
2017-10-12T02:59:35.034Z,1006.79
2017-10-12T03:00:15.604Z,1006.84
2017-10-12T03:00:56.166Z,1006.82
2017-10-12T03:01:36.759Z,1006.81
2017-10-12T03:02:17.328Z,1006.8
2017-10-12T03:02:57.898Z,1006.79
2017-10-12T03:03:38.473Z,1006.84
2017-10-12T03:04:19.057Z,1006.78
2017-10-12T03:04:59.624Z,1006.8
2017-10-12T03:05:40.185Z,1006.79
2017-10-12T03:06:20.776Z,1006.75
2017-10-12T03:07:01.396Z,1006.81
2017-10-12T03:07:41.969Z,1006.81
2017-10-12T03:08:22.531Z,1006.8
2017-10-12T03:09:03.096Z,1006.78
2017-10-12T03:09:43.659Z,1006.8
2017-10-12T03:10:24.221Z,1006.83
2017-10-12T03:11:04.773Z,1006.83
2017-10-12T03:11:45.354Z,1006.83
2017-10-12T03:12:25.974Z,1006.8
2017-10-12T03:13:06.568Z,1006.8
2017-10-12T03:13:47.147Z,1006.81
2017-10-12T03:14:27.714Z,1006.82
2017-10-12T03:15:08.325Z,1006.82
2017-10-12T03:15:48.908Z,1006.8
2017-10-12T03:16:29.481Z,1006.82
2017-10-12T03:17:10.061Z,1006.79
2017-10-12T03:17:50.613Z,1006.81
2017-10-12T03:18:31.193Z,1006.77
2017-10-12T03:19:11.771Z,1006.77
2017-10-12T03:19:52.367Z,1006.75
2017-10-12T03:20:32.949Z,1006.75
2017-10-12T03:21:13.537Z,1006.73
2017-10-12T03:21:54.089Z,1006.7
2017-10-12T03:22:34.656Z,1006.73
2017-10-12T03:23:15.240Z,1006.69
2017-10-12T03:23:55.803Z,1006.71
2017-10-12T03:24:36.399Z,1006.67
2017-10-12T03:25:16.986Z,1006.69
2017-10-12T03:25:57.552Z,1006.72
2017-10-12T03:26:38.129Z,1006.73
2017-10-12T03:27:18.699Z,1006.66
2017-10-12T03:27:59.257Z,1006.7
2017-10-12T03:28:39.834Z,1006.67
2017-10-12T03:29:20.410Z,1006.7
2017-10-12T03:30:00.980Z,1006.66
2017-10-12T03:30:41.536Z,1006.62
2017-10-12T03:31:22.103Z,1006.6
2017-10-12T03:32:02.685Z,1006.62
2017-10-12T03:32:43.253Z,1006.68
2017-10-12T03:33:23.832Z,1006.69
2017-10-12T03:34:04.399Z,1006.73
2017-10-12T03:34:44.975Z,1006.76
2017-10-12T03:35:25.553Z,1006.75
2017-10-12T03:36:06.120Z,1006.75
2017-10-12T03:36:46.679Z,1006.72
2017-10-12T03:37:27.245Z,1006.66
2017-10-12T03:38:07.803Z,1006.64
2017-10-12T03:38:48.375Z,1006.66
2017-10-12T03:39:28.951Z,1006.7
2017-10-12T03:40:09.514Z,1006.68
2017-10-12T03:40:50.090Z,1006.64
2017-10-12T03:41:30.641Z,1006.63
2017-10-12T03:42:11.210Z,1006.72
2017-10-12T03:42:51.785Z,1006.61
2017-10-12T03:43:32.353Z,1006.66
2017-10-12T03:44:12.942Z,1006.61
2017-10-12T03:44:53.507Z,1006.63
2017-10-12T03:45:34.070Z,1006.61
2017-10-12T03:46:14.682Z,1006.6
2017-10-12T03:46:55.266Z,1006.63
2017-10-12T03:47:35.822Z,1006.62
2017-10-12T03:48:16.398Z,1006.64
2017-10-12T03:48:56.971Z,1006.57
2017-10-12T03:49:37.545Z,1006.62
2017-10-12T03:50:18.125Z,1006.63
2017-10-12T03:50:58.702Z,1006.64
2017-10-12T03:51:39.269Z,1006.61
2017-10-12T03:52:19.853Z,1006.62
2017-10-12T03:53:00.420Z,1006.6
2017-10-12T03:53:40.980Z,1006.63
2017-10-12T03:54:21.553Z,1006.63
2017-10-12T03:55:02.106Z,1006.59
2017-10-12T03:55:42.675Z,1006.56
2017-10-12T03:56:23.236Z,1006.62
2017-10-12T03:57:03.814Z,1006.61
2017-10-12T03:57:44.383Z,1006.62
2017-10-12T03:58:24.949Z,1006.66
2017-10-12T03:59:05.527Z,1006.61
2017-10-12T03:59:46.123Z,1006.63
2017-10-12T04:00:26.691Z,1006.6
2017-10-12T04:01:07.295Z,1006.64
2017-10-12T04:01:47.877Z,1006.6
2017-10-12T04:02:28.441Z,1006.58
2017-10-12T04:03:09.027Z,1006.52
2017-10-12T04:03:49.656Z,1006.53
2017-10-12T04:04:30.216Z,1006.49
2017-10-12T04:05:10.778Z,1006.54
2017-10-12T04:05:51.348Z,1006.52
2017-10-12T04:06:31.928Z,1006.47
2017-10-12T04:07:12.508Z,1006.5
2017-10-12T04:07:53.078Z,1006.49
2017-10-12T04:08:33.650Z,1006.51
2017-10-12T04:09:14.238Z,1006.5
2017-10-12T04:09:54.793Z,1006.48
2017-10-12T04:10:35.359Z,1006.5
2017-10-12T04:11:15.942Z,1006.45
2017-10-12T04:11:56.505Z,1006.46
2017-10-12T04:12:37.061Z,1006.43
2017-10-12T04:13:17.670Z,1006.43
2017-10-12T04:13:58.242Z,1006.42
2017-10-12T04:14:38.853Z,1006.44
2017-10-12T04:15:19.437Z,1006.43
2017-10-12T04:16:00.002Z,1006.49
2017-10-12T04:16:40.572Z,1006.53
2017-10-12T04:17:21.137Z,1006.55
2017-10-12T04:18:01.710Z,1006.53
2017-10-12T04:18:42.287Z,1006.51
2017-10-12T04:19:22.865Z,1006.44
2017-10-12T04:20:03.437Z,1006.38
2017-10-12T04:20:44.000Z,1006.38
2017-10-12T04:21:24.583Z,1006.37
2017-10-12T04:22:05.165Z,1006.34
2017-10-12T04:22:45.730Z,1006.42
2017-10-12T04:23:26.314Z,1006.48
2017-10-12T04:24:06.883Z,1006.52
2017-10-12T04:24:47.446Z,1006.52
2017-10-12T04:25:30.636Z,1006.54
2017-10-12T04:26:11.207Z,1006.48
2017-10-12T04:26:51.779Z,1006.45
2017-10-12T04:27:32.337Z,1006.45
2017-10-12T04:28:12.911Z,1006.46
2017-10-12T04:28:53.501Z,1006.45
2017-10-12T04:29:34.084Z,1006.47
2017-10-12T04:30:14.637Z,1006.5
2017-10-12T04:30:55.204Z,1006.53
2017-10-12T04:31:35.781Z,1006.51
2017-10-12T04:32:16.357Z,1006.52
2017-10-12T04:32:56.938Z,1006.51
2017-10-12T04:33:37.502Z,1006.46
2017-10-12T04:34:18.092Z,1006.39
2017-10-12T04:34:58.655Z,1006.41
2017-10-12T04:35:39.232Z,1006.48
2017-10-12T04:36:19.809Z,1006.46
2017-10-12T04:37:00.398Z,1006.41
2017-10-12T04:37:40.970Z,1006.46
2017-10-12T04:38:21.555Z,1006.48
2017-10-12T04:39:02.131Z,1006.48
2017-10-12T04:39:42.733Z,1006.46
2017-10-12T04:40:23.359Z,1006.44
2017-10-12T04:41:03.921Z,1006.46
2017-10-12T04:41:44.480Z,1006.49
2017-10-12T04:42:25.051Z,1006.49
2017-10-12T04:43:05.617Z,1006.48
2017-10-12T04:43:46.180Z,1006.48
2017-10-12T04:44:26.750Z,1006.49
2017-10-12T04:45:07.410Z,1006.48
2017-10-12T04:45:48.009Z,1006.45
2017-10-12T04:46:28.826Z,1006.45
2017-10-12T04:47:09.644Z,1006.49
2017-10-12T04:47:50.487Z,1006.5
2017-10-12T04:48:31.614Z,1006.49
2017-10-12T04:49:12.201Z,1006.49
2017-10-12T04:49:52.778Z,1006.49
2017-10-12T04:50:33.394Z,1006.42
2017-10-12T04:51:13.973Z,1006.41
2017-10-12T04:51:54.538Z,1006.44
2017-10-12T04:52:35.106Z,1006.44
2017-10-12T04:53:15.715Z,1006.42
2017-10-12T04:53:56.296Z,1006.39
2017-10-12T04:54:36.907Z,1006.41
2017-10-12T04:55:17.471Z,1006.41
2017-10-12T04:55:58.055Z,1006.36
2017-10-12T04:56:38.780Z,1006.41
2017-10-12T04:57:19.402Z,1006.35
2017-10-12T04:58:00.338Z,1006.39
2017-10-12T04:58:41.059Z,1006.38
2017-10-12T04:59:21.822Z,1006.4
2017-10-12T05:00:02.741Z,1006.38
2017-10-12T05:00:43.325Z,1006.38
2017-10-12T05:01:23.917Z,1006.41
2017-10-12T05:02:04.497Z,1006.36
2017-10-12T05:02:45.087Z,1006.43
2017-10-12T05:03:25.659Z,1006.46
2017-10-12T05:04:06.316Z,1006.41
2017-10-12T05:04:46.902Z,1006.37
2017-10-12T05:05:27.507Z,1006.43
2017-10-12T05:06:08.106Z,1006.44
2017-10-12T05:06:48.763Z,1006.38
2017-10-12T05:07:29.406Z,1006.4
2017-10-12T05:08:10.086Z,1006.41
2017-10-12T05:08:50.759Z,1006.49
2017-10-12T05:09:31.366Z,1006.4
2017-10-12T05:12:04.669Z,1006.41
2017-10-12T05:12:45.340Z,1006.37
2017-10-12T05:13:25.884Z,1006.34
2017-10-12T05:14:06.487Z,1006.37
2017-10-12T05:14:47.253Z,1006.31
2017-10-12T05:15:27.881Z,1006.34
2017-10-12T05:16:08.477Z,1006.35
2017-10-12T05:16:49.049Z,1006.35
2017-10-12T05:17:29.623Z,1006.34
2017-10-12T05:18:10.196Z,1006.31
2017-10-12T05:18:50.818Z,1006.36
2017-10-12T05:19:31.494Z,1006.39
2017-10-12T05:20:12.052Z,1006.36
2017-10-12T05:20:52.611Z,1006.35
2017-10-12T05:21:33.182Z,1006.41
2017-10-12T05:22:13.764Z,1006.36
2017-10-12T05:22:54.359Z,1006.34
2017-10-12T05:23:34.930Z,1006.31
2017-10-12T05:24:15.511Z,1006.33
2017-10-12T05:24:56.116Z,1006.33
2017-10-12T05:25:36.691Z,1006.34
2017-10-12T05:26:17.281Z,1006.32
2017-10-12T05:26:58.068Z,1006.31
2017-10-12T05:27:38.734Z,1006.31
2017-10-12T05:28:19.311Z,1006.32
2017-10-12T05:28:59.879Z,1006.32
2017-10-12T05:29:40.446Z,1006.3
2017-10-12T05:30:21.004Z,1006.33
2017-10-12T05:31:01.574Z,1006.36
2017-10-12T05:31:42.151Z,1006.28
2017-10-12T05:32:22.749Z,1006.28
2017-10-12T05:33:03.310Z,1006.31
2017-10-12T05:33:43.890Z,1006.37
2017-10-12T05:34:24.468Z,1006.37
2017-10-12T05:35:05.028Z,1006.38
2017-10-12T05:35:45.601Z,1006.35
2017-10-12T05:36:26.160Z,1006.36
2017-10-12T05:37:06.740Z,1006.38
2017-10-12T05:37:47.305Z,1006.41
2017-10-12T05:38:27.913Z,1006.37
2017-10-12T05:39:08.465Z,1006.45
2017-10-12T05:39:49.040Z,1006.47
2017-10-12T05:40:29.643Z,1006.49
2017-10-12T05:41:10.252Z,1006.48
2017-10-12T05:41:50.807Z,1006.49
2017-10-12T05:42:31.384Z,1006.5
2017-10-12T05:43:12.053Z,1006.44
2017-10-12T05:43:52.651Z,1006.5
2017-10-12T05:44:33.226Z,1006.53
2017-10-12T05:45:13.820Z,1006.47
2017-10-12T05:45:54.401Z,1006.47
2017-10-12T05:46:35.187Z,1006.52
2017-10-12T05:47:15.787Z,1006.5
2017-10-12T05:47:56.627Z,1006.49
2017-10-12T05:48:37.252Z,1006.56
2017-10-12T05:49:17.814Z,1006.61
2017-10-12T05:49:58.424Z,1006.61
2017-10-12T05:50:39.532Z,1006.6
2017-10-12T05:51:20.175Z,1006.61
2017-10-12T05:52:00.781Z,1006.59
2017-10-12T05:52:41.362Z,1006.55
2017-10-12T05:53:21.945Z,1006.52
2017-10-12T05:54:02.617Z,1006.54
2017-10-12T05:54:43.230Z,1006.53
2017-10-12T05:55:23.960Z,1006.55
2017-10-12T05:56:04.573Z,1006.55
2017-10-12T05:56:45.172Z,1006.48
2017-10-12T05:57:25.988Z,1006.54
2017-10-12T05:58:07.060Z,1006.53
2017-10-12T05:58:47.673Z,1006.53
2017-10-12T05:59:28.281Z,1006.55
2017-10-12T06:00:09.028Z,1006.6
2017-10-12T06:00:49.634Z,1006.59
2017-10-12T06:01:30.250Z,1006.58
2017-10-12T06:02:10.984Z,1006.61
2017-10-12T06:02:51.539Z,1006.64
2017-10-12T06:03:32.101Z,1006.7
2017-10-12T06:04:12.679Z,1006.65
2017-10-12T06:04:53.433Z,1006.74
2017-10-12T06:05:33.997Z,1006.7
2017-10-12T06:06:14.562Z,1006.72
2017-10-12T06:06:55.168Z,1006.71
2017-10-12T06:07:35.734Z,1006.73
2017-10-12T06:08:16.314Z,1006.73
2017-10-12T06:08:56.892Z,1006.78
2017-10-12T06:09:37.505Z,1006.74
2017-10-12T06:10:18.102Z,1006.76
2017-10-12T06:10:58.663Z,1006.75
2017-10-12T06:11:39.229Z,1006.74
2017-10-12T06:12:19.822Z,1006.74
2017-10-12T06:13:00.396Z,1006.75
2017-10-12T06:13:40.962Z,1006.74
2017-10-12T06:14:21.525Z,1006.77
2017-10-12T06:15:02.135Z,1006.75
2017-10-12T06:15:42.703Z,1006.79
2017-10-12T06:16:23.263Z,1006.82
2017-10-12T06:17:03.840Z,1006.79
2017-10-12T06:17:44.419Z,1006.78
2017-10-12T06:18:24.981Z,1006.82
2017-10-12T06:19:05.570Z,1006.87
2017-10-12T06:19:46.123Z,1006.9
2017-10-12T06:20:26.737Z,1006.91
2017-10-12T06:21:07.297Z,1006.94
2017-10-12T06:21:47.925Z,1006.93
2017-10-12T06:22:28.785Z,1006.96
2017-10-12T06:23:09.358Z,1006.96
2017-10-12T06:23:49.916Z,1006.92
2017-10-12T06:24:30.501Z,1006.93
2017-10-12T06:25:11.059Z,1006.92
2017-10-12T06:25:51.616Z,1006.93
2017-10-12T06:26:32.210Z,1006.9
2017-10-12T06:27:12.782Z,1006.89
2017-10-12T06:27:53.370Z,1006.89
2017-10-12T06:28:33.927Z,1006.9
2017-10-12T06:29:14.501Z,1006.91
2017-10-12T06:29:55.103Z,1006.86
2017-10-12T06:30:35.778Z,1006.86
2017-10-12T06:31:16.337Z,1006.88
2017-10-12T06:31:56.916Z,1006.86
2017-10-12T06:32:37.528Z,1006.89
2017-10-12T06:33:18.109Z,1006.93
2017-10-12T06:33:58.684Z,1006.94
2017-10-12T06:34:39.271Z,1006.86
2017-10-12T06:35:19.854Z,1006.92
2017-10-12T06:36:00.424Z,1006.92
2017-10-12T06:36:41.045Z,1006.89
2017-10-12T06:37:21.605Z,1006.9
2017-10-12T06:38:02.237Z,1006.88
2017-10-12T06:38:42.823Z,1006.89
2017-10-12T06:39:23.393Z,1006.85
2017-10-12T06:40:03.959Z,1006.88
2017-10-12T06:40:44.565Z,1006.89
2017-10-12T06:41:25.191Z,1006.85
2017-10-12T06:42:05.769Z,1006.89
2017-10-12T06:42:46.370Z,1006.87
2017-10-12T06:43:26.948Z,1006.88
2017-10-12T06:44:07.524Z,1006.98
2017-10-12T06:44:48.087Z,1006.96
2017-10-12T06:45:28.658Z,1006.94
2017-10-12T06:46:09.222Z,1007.05
2017-10-12T06:46:49.785Z,1006.97
2017-10-12T06:47:30.352Z,1006.98
2017-10-12T06:48:10.982Z,1007.02
2017-10-12T06:48:51.564Z,1007.01
2017-10-12T06:49:32.176Z,1007.08
2017-10-12T06:50:12.735Z,1007.12
2017-10-12T06:50:53.305Z,1007.08
2017-10-12T06:51:33.907Z,1007.07
2017-10-12T06:52:14.512Z,1007.13
2017-10-12T06:52:55.072Z,1007.1
2017-10-12T06:53:35.640Z,1007.16
2017-10-12T06:54:16.216Z,1007.14
2017-10-12T06:54:56.776Z,1007.19
2017-10-12T06:55:37.353Z,1007.15
2017-10-12T06:56:17.903Z,1007.18
2017-10-12T06:56:58.484Z,1007.22
2017-10-12T06:57:39.069Z,1007.22
2017-10-12T06:58:19.655Z,1007.13
2017-10-12T06:59:00.230Z,1007.22
2017-10-12T06:59:40.794Z,1007.24
2017-10-12T07:00:21.364Z,1007.2
2017-10-12T07:01:01.935Z,1007.24
2017-10-12T07:01:42.502Z,1007.18
2017-10-12T07:02:23.088Z,1007.2
2017-10-12T07:03:03.672Z,1007.21
2017-10-12T07:03:44.255Z,1007.16
2017-10-12T07:04:24.830Z,1007.18
2017-10-12T07:05:05.394Z,1007.13
2017-10-12T07:05:46.071Z,1007.14
2017-10-12T07:06:26.635Z,1007.13
2017-10-12T07:07:07.217Z,1007.08
2017-10-12T07:07:47.856Z,1007.12
2017-10-12T07:08:28.422Z,1007.15
2017-10-12T07:09:08.972Z,1007.08
2017-10-12T07:09:49.544Z,1007.11
2017-10-12T07:10:30.135Z,1007.23
2017-10-12T07:11:10.699Z,1007.19
2017-10-12T07:11:51.268Z,1007.24
2017-10-12T07:12:31.834Z,1007.27
2017-10-12T07:13:12.421Z,1007.25
2017-10-12T07:13:52.989Z,1007.22
2017-10-12T07:14:33.575Z,1007.29
2017-10-12T07:15:14.138Z,1007.35
2017-10-12T07:15:54.716Z,1007.27
2017-10-12T07:16:35.280Z,1007.32
2017-10-12T07:17:15.858Z,1007.3
2017-10-12T07:17:56.432Z,1007.37
2017-10-12T07:18:37.042Z,1007.36
2017-10-12T07:19:18.165Z,1007.36
2017-10-12T07:19:58.782Z,1007.39
2017-10-12T07:20:39.365Z,1007.42
2017-10-12T07:21:20.406Z,1007.47
2017-10-12T07:22:00.998Z,1007.5
2017-10-12T07:22:41.563Z,1007.42
2017-10-12T07:23:22.143Z,1007.56
2017-10-12T07:24:02.729Z,1007.53
2017-10-12T07:24:43.295Z,1007.49
2017-10-12T07:25:24.292Z,1007.5
2017-10-12T07:26:04.732Z,1007.43
2017-10-12T07:26:45.298Z,1007.46
2017-10-12T07:27:25.862Z,1007.48
2017-10-12T07:28:06.477Z,1007.47
2017-10-12T07:28:47.040Z,1007.48
2017-10-12T07:29:27.628Z,1007.57
2017-10-12T07:30:08.366Z,1007.56
2017-10-12T07:30:48.934Z,1007.62
2017-10-12T07:31:29.506Z,1007.54
2017-10-12T07:32:10.082Z,1007.57
2017-10-12T07:32:50.645Z,1007.68
2017-10-12T07:33:31.263Z,1007.58
2017-10-12T07:34:11.945Z,1007.61
2017-10-12T07:34:52.666Z,1007.62
2017-10-12T07:35:33.329Z,1007.63
2017-10-12T07:36:14.142Z,1007.62
2017-10-12T07:36:54.718Z,1007.63
2017-10-12T07:37:35.557Z,1007.69
2017-10-12T07:38:16.119Z,1007.65
2017-10-12T07:38:56.739Z,1007.7
2017-10-12T07:39:37.304Z,1007.77
2017-10-12T07:40:17.884Z,1007.69
2017-10-12T07:40:58.496Z,1007.78
2017-10-12T07:41:39.048Z,1007.76
2017-10-12T07:42:19.609Z,1007.75
2017-10-12T07:43:00.356Z,1007.71
2017-10-12T07:43:40.940Z,1007.74
2017-10-12T07:44:21.506Z,1007.74
2017-10-12T07:45:02.083Z,1007.75
2017-10-12T07:45:42.641Z,1007.85
2017-10-12T07:46:23.221Z,1007.82
2017-10-12T07:47:03.783Z,1007.84
2017-10-12T07:47:44.363Z,1007.82
2017-10-12T07:48:24.938Z,1007.9
2017-10-12T07:49:05.528Z,1007.92
2017-10-12T07:49:46.120Z,1007.92
2017-10-12T07:50:26.686Z,1007.93
2017-10-12T07:51:07.296Z,1007.87
2017-10-12T07:51:47.860Z,1007.92
2017-10-12T07:52:28.444Z,1007.91
2017-10-12T07:53:09.028Z,1007.87
2017-10-12T07:53:49.590Z,1007.89
2017-10-12T07:54:30.164Z,1007.95
2017-10-12T07:55:10.728Z,1008.02
2017-10-12T07:55:51.319Z,1008.11
2017-10-12T07:56:31.887Z,1008.08
2017-10-12T07:57:12.469Z,1008.01
2017-10-12T07:57:53.054Z,1008.2
2017-10-12T07:58:33.619Z,1008.15
2017-10-12T07:59:14.212Z,1008.08
2017-10-12T07:59:54.792Z,1008.1
2017-10-12T08:00:35.363Z,1008.11
2017-10-12T08:01:15.947Z,1008.11
2017-10-12T08:01:56.551Z,1008.26
2017-10-12T08:02:37.155Z,1008.22
2017-10-12T08:03:17.723Z,1008.13
2017-10-12T08:03:58.315Z,1008.2
2017-10-12T08:04:38.930Z,1008.08
2017-10-12T08:05:19.497Z,1008.01
2017-10-12T08:06:00.079Z,1008.04
2017-10-12T08:06:40.680Z,1008.01
2017-10-12T08:07:21.246Z,1008.17
2017-10-12T08:08:01.818Z,1008.25
2017-10-12T08:08:42.386Z,1008.22
2017-10-12T08:09:22.955Z,1008.19
2017-10-12T08:10:03.516Z,1008.25
2017-10-12T08:10:44.090Z,1008.24
2017-10-12T08:11:24.682Z,1008.13
2017-10-12T08:12:05.264Z,1008.13
2017-10-12T08:12:45.833Z,1008.22
2017-10-12T08:13:26.468Z,1008.22
2017-10-12T08:14:07.091Z,1008.34
2017-10-12T08:14:47.761Z,1008.23